createdAt,value
2018-08-18T00:03:27.453Z,20.60
2018-08-18T00:08:21.660Z,20.50
2018-08-18T00:10:48.998Z,20.40
2018-08-18T00:13:16.035Z,20.30
2018-08-18T00:15:43.129Z,20.30
2018-08-18T00:18:11.024Z,20.20
2018-08-18T00:20:38.060Z,20.20
2018-08-18T00:23:05.636Z,20.10
2018-08-18T00:25:32.657Z,20.20
2018-08-18T00:28:00.564Z,20.20
2018-08-18T00:30:27.686Z,20.40
2018-08-18T00:32:54.753Z,20.50
2018-08-18T00:35:22.366Z,20.50
2018-08-18T00:37:50.114Z,20.60
2018-08-18T00:40:17.833Z,20.60
2018-08-18T00:42:47.262Z,20.50
2018-08-18T00:45:14.350Z,20.40
2018-08-18T00:47:41.376Z,20.40
2018-08-18T00:50:08.954Z,20.50
2018-08-18T00:52:36.547Z,20.20
2018-08-18T00:55:03.608Z,19.80
2018-08-18T01:00:12.013Z,19.60
2018-08-18T01:02:39.909Z,19.60
2018-08-18T01:07:34.162Z,19.70
2018-08-18T01:10:01.203Z,19.60
2018-08-18T01:12:28.492Z,19.50
2018-08-18T01:14:56.168Z,19.50
2018-08-18T01:17:23.581Z,19.40
2018-08-18T01:19:50.667Z,19.40
2018-08-18T01:22:17.730Z,19.30
2018-08-18T01:24:45.909Z,19.40
2018-08-18T01:27:13.842Z,19.40
2018-08-18T01:29:40.908Z,19.30
2018-08-18T01:32:07.995Z,19.30
2018-08-18T01:34:36.575Z,19.40
2018-08-18T01:37:04.640Z,19.30
2018-08-18T01:39:31.998Z,19.40
2018-08-18T01:41:59.060Z,19.40
2018-08-18T01:44:26.547Z,19.40
2018-08-18T01:46:53.601Z,19.40
2018-08-18T01:49:21.554Z,19.50
2018-08-18T01:51:48.625Z,19.50
2018-08-18T01:56:54.219Z,19.20
2018-08-18T01:59:21.258Z,19.20
2018-08-18T02:01:49.162Z,19.10
2018-08-18T02:04:16.229Z,19.10
2018-08-18T02:06:44.134Z,19.10
2018-08-18T02:09:12.072Z,19.10
2018-08-18T02:11:39.139Z,19.20
2018-08-18T02:14:07.186Z,19.20
2018-08-18T02:21:29.883Z,19.20
2018-08-18T02:23:56.930Z,19.20
2018-08-18T02:26:24.025Z,19.30
2018-08-18T02:28:51.124Z,19.30
2018-08-18T02:31:18.153Z,19.40
2018-08-18T02:33:45.239Z,19.50
2018-08-18T02:36:12.303Z,19.50
2018-08-18T02:38:40.244Z,19.60
2018-08-18T02:43:46.991Z,19.60
2018-08-18T02:46:14.075Z,19.70
2018-08-18T02:48:41.139Z,19.70
2018-08-18T02:51:08.240Z,19.50
2018-08-18T02:53:36.317Z,19.50
2018-08-18T02:56:03.374Z,19.60
2018-08-18T02:58:30.387Z,19.40
2018-08-18T03:00:59.419Z,19.30
2018-08-18T03:03:26.453Z,19.20
2018-08-18T03:05:56.562Z,19.30
2018-08-18T03:08:23.660Z,19.20
2018-08-18T03:10:50.703Z,19.30
2018-08-18T03:13:22.222Z,19.10
2018-08-18T03:15:49.324Z,18.90
2018-08-18T03:18:16.356Z,17.60
2018-08-18T03:23:21.705Z,19.00
2018-08-18T03:25:48.746Z,19.20
2018-08-18T03:28:15.773Z,19.20
2018-08-18T03:30:42.845Z,19.30
2018-08-18T03:33:11.677Z,19.30
2018-08-18T03:35:39.663Z,19.10
2018-08-18T03:38:07.716Z,18.80
2018-08-18T03:40:34.750Z,18.60
2018-08-18T03:43:01.833Z,18.50
2018-08-18T03:45:29.039Z,18.30
2018-08-18T03:47:56.082Z,18.30
2018-08-18T03:50:25.242Z,18.30
2018-08-18T03:52:53.462Z,18.30
2018-08-18T03:55:21.993Z,18.30
2018-08-18T03:57:49.876Z,18.20
2018-08-18T04:02:58.774Z,18.20
2018-08-18T04:05:25.867Z,18.20
2018-08-18T04:07:53.880Z,18.20
2018-08-18T04:10:20.951Z,18.10
2018-08-18T04:12:48.047Z,18.10
2018-08-18T04:15:15.139Z,18.20
2018-08-18T04:17:42.192Z,18.20
2018-08-18T04:20:09.295Z,18.10
2018-08-18T04:22:36.329Z,17.90
2018-08-18T04:25:05.288Z,17.80
2018-08-18T04:27:32.323Z,17.80
2018-08-18T04:30:00.087Z,17.80
2018-08-18T04:32:27.130Z,17.80
2018-08-18T04:34:56.770Z,17.80
2018-08-18T04:37:24.644Z,17.80
2018-08-18T04:39:51.701Z,17.80
2018-08-18T04:42:18.781Z,17.80
2018-08-18T04:44:45.818Z,17.90
2018-08-18T04:47:13.389Z,17.90
2018-08-18T04:49:40.502Z,17.80
2018-08-18T04:54:34.694Z,17.70
2018-08-18T04:57:03.282Z,17.80
2018-08-18T04:59:31.193Z,17.70
2018-08-18T05:01:58.199Z,17.80
2018-08-18T05:07:07.204Z,17.90
2018-08-18T05:09:34.302Z,18.00
2018-08-18T05:12:01.348Z,18.10
2018-08-18T05:14:28.404Z,18.10
2018-08-18T05:16:55.549Z,18.10
2018-08-18T05:19:23.417Z,18.10
2018-08-18T05:21:50.462Z,18.20
2018-08-18T05:24:17.543Z,18.30
2018-08-18T05:26:44.614Z,18.40
2018-08-18T05:29:11.675Z,18.40
2018-08-18T05:31:38.830Z,18.60
2018-08-18T05:34:05.910Z,18.70
2018-08-18T05:36:32.993Z,19.00
2018-08-18T05:39:00.824Z,19.00
2018-08-18T05:41:27.867Z,19.10
2018-08-18T05:43:54.961Z,19.00
2018-08-18T05:46:22.194Z,19.30
2018-08-18T05:48:49.251Z,19.20
2018-08-18T05:51:16.270Z,19.40
2018-08-18T05:56:30.981Z,19.60
2018-08-18T06:01:26.086Z,20.00
2018-08-18T06:03:53.083Z,20.10
2018-08-18T06:09:10.046Z,20.20
2018-08-18T06:11:37.154Z,20.20
2018-08-18T06:14:04.201Z,20.50
2018-08-18T06:16:31.246Z,20.10
2018-08-18T06:18:58.346Z,20.60
2018-08-18T06:21:25.389Z,20.40
2018-08-18T06:23:52.442Z,20.40
2018-08-18T06:26:20.354Z,20.60
2018-08-18T06:28:47.352Z,20.80
2018-08-18T06:31:14.356Z,21.10
2018-08-18T06:33:41.481Z,21.10
2018-08-18T06:36:09.264Z,21.20
2018-08-18T06:38:36.282Z,21.40
2018-08-18T06:41:03.422Z,21.60
2018-08-18T06:43:30.376Z,21.50
2018-08-18T06:48:24.700Z,22.00
2018-08-18T06:50:51.761Z,21.80
2018-08-18T06:55:57.026Z,22.20
2018-08-18T06:58:25.046Z,22.10
2018-08-18T07:00:53.089Z,22.40
2018-08-18T07:05:59.679Z,22.40
2018-08-18T07:08:26.681Z,22.40
2018-08-18T07:10:53.745Z,22.10
2018-08-18T07:13:20.767Z,21.90
2018-08-18T07:15:47.866Z,22.10
2018-08-18T07:18:15.866Z,22.60
2018-08-18T07:20:42.903Z,22.40
2018-08-18T07:23:09.977Z,22.50
2018-08-18T07:25:37.028Z,23.20
2018-08-18T07:28:04.077Z,23.50
2018-08-18T07:30:31.955Z,23.60
2018-08-18T07:32:59.009Z,23.00
2018-08-18T07:35:26.038Z,23.20
2018-08-18T07:37:53.159Z,22.80
2018-08-18T07:45:25.671Z,23.40
2018-08-18T07:47:52.701Z,22.80
2018-08-18T07:50:19.785Z,22.70
2018-08-18T07:52:46.817Z,23.40
2018-08-18T07:55:13.859Z,22.80
2018-08-18T07:57:40.917Z,23.30
2018-08-18T08:00:07.963Z,23.60
2018-08-18T08:02:34.933Z,23.90
2018-08-18T08:05:02.058Z,23.40
2018-08-18T08:09:56.117Z,23.70
2018-08-18T08:12:24.062Z,23.70
2018-08-18T08:14:51.056Z,23.70
2018-08-18T08:17:18.089Z,23.90
2018-08-18T08:19:45.246Z,24.00
2018-08-18T08:22:12.273Z,24.10
2018-08-18T08:24:39.317Z,24.90
2018-08-18T08:27:06.437Z,25.00
2018-08-18T08:29:33.444Z,25.60
2018-08-18T08:32:00.462Z,25.90
2018-08-18T08:34:28.043Z,26.00
2018-08-18T08:36:56.009Z,26.20
2018-08-18T08:39:23.037Z,25.70
2018-08-18T08:41:53.842Z,25.30
2018-08-18T08:44:20.877Z,25.20
2018-08-18T08:49:33.772Z,25.90
2018-08-18T08:57:14.356Z,26.50
2018-08-18T08:59:40.557Z,26.70
2018-08-18T09:02:07.574Z,25.40
2018-08-18T09:04:34.737Z,26.10
2018-08-18T09:07:01.802Z,26.50
2018-08-18T09:09:28.845Z,26.60
2018-08-18T09:11:56.339Z,27.40
2018-08-18T09:14:23.826Z,27.20
2018-08-18T09:16:51.808Z,27.30
2018-08-18T09:19:19.868Z,27.60
2018-08-18T09:21:47.409Z,27.40
2018-08-18T09:43:16.024Z,28.30
2018-08-18T09:45:49.837Z,28.80
2018-08-18T09:51:04.870Z,28.50
2018-08-18T09:56:21.828Z,28.80
2018-08-18T09:58:48.894Z,28.90
2018-08-18T10:03:44.150Z,28.90
2018-08-18T10:06:17.463Z,29.20
2018-08-18T10:08:46.174Z,29.20
2018-08-18T10:11:27.284Z,29.80
2018-08-18T10:13:54.538Z,29.10
2018-08-18T10:16:22.001Z,29.40
2018-08-18T10:24:53.418Z,29.50
2018-08-18T10:27:20.599Z,29.60
2018-08-18T10:29:47.569Z,29.30
2018-08-18T10:32:15.656Z,29.60
2018-08-18T10:34:43.617Z,29.90
2018-08-18T10:37:12.847Z,29.70
2018-08-18T10:42:13.524Z,29.60
2018-08-18T10:44:40.534Z,29.70
2018-08-18T10:47:14.417Z,29.70
2018-08-18T10:55:23.026Z,30.60
2018-08-18T11:00:43.237Z,30.00
2018-08-18T11:03:13.295Z,30.10
2018-08-18T11:05:41.153Z,30.10
2018-08-18T11:08:10.176Z,29.70
2018-08-18T11:10:37.317Z,30.90
2018-08-18T11:13:04.468Z,30.60
2018-08-18T11:15:31.599Z,30.10
2018-08-18T11:17:59.232Z,29.50
2018-08-18T11:25:49.203Z,29.40
2018-08-18T11:28:16.422Z,29.00
2018-08-18T11:36:16.291Z,29.80
2018-08-18T11:38:44.809Z,30.00
2018-08-18T11:41:12.005Z,29.30
2018-08-18T11:43:39.164Z,29.90
2018-08-18T11:49:00.109Z,30.00
2018-08-18T11:54:06.804Z,30.10
2018-08-18T11:56:43.916Z,30.20
2018-08-18T11:59:26.476Z,31.20
2018-08-18T12:04:31.663Z,30.50
2018-08-18T12:09:46.054Z,30.50
2018-08-18T12:12:21.796Z,31.20
2018-08-18T12:34:35.432Z,30.80
2018-08-18T13:37:41.051Z,30.40
2018-08-18T13:40:15.234Z,30.10
2018-08-18T13:45:35.486Z,29.90
2018-08-18T13:48:04.354Z,30.00
2018-08-18T13:50:36.189Z,29.80
2018-08-18T14:07:08.227Z,30.80
2018-08-18T14:09:40.679Z,30.60
2018-08-18T14:12:11.475Z,30.20
2018-08-18T14:17:34.085Z,30.50
2018-08-18T14:20:01.097Z,30.80
2018-08-18T14:22:42.865Z,30.30
2018-08-18T14:25:22.858Z,30.30
2018-08-18T14:27:50.782Z,30.30
2018-08-18T14:30:17.853Z,29.90
2018-08-18T14:35:19.667Z,30.10
2018-08-18T14:37:46.867Z,29.90
2018-08-18T14:40:15.360Z,29.80
2018-08-18T14:42:47.713Z,29.80
2018-08-18T14:45:16.475Z,29.90
2018-08-18T14:47:44.894Z,29.80
2018-08-18T14:50:13.813Z,30.00
2018-08-18T14:52:40.850Z,29.70
2018-08-18T15:00:19.117Z,29.40
2018-08-18T15:02:46.217Z,29.40
2018-08-18T15:05:14.281Z,29.30
2018-08-18T15:07:41.297Z,29.20
2018-08-18T15:10:09.293Z,29.40
2018-08-18T15:12:36.339Z,29.40
2018-08-18T15:15:03.415Z,29.20
2018-08-18T15:17:30.459Z,29.20
2018-08-18T15:19:57.497Z,29.20
2018-08-18T15:22:24.513Z,29.20
2018-08-18T15:24:51.604Z,29.30
2018-08-18T15:29:46.855Z,29.10
2018-08-18T15:32:19.120Z,29.10
2018-08-18T15:34:46.799Z,29.00
2018-08-18T15:37:13.913Z,28.90
2018-08-18T15:39:42.231Z,28.80
2018-08-18T15:42:09.278Z,28.90
2018-08-18T15:44:36.424Z,28.60
2018-08-18T15:47:04.321Z,28.40
2018-08-18T15:49:31.376Z,28.70
2018-08-18T15:57:00.314Z,28.50
2018-08-18T15:59:33.328Z,28.70
2018-08-18T16:02:00.352Z,28.70
2018-08-18T16:09:49.830Z,28.40
2018-08-18T16:12:17.304Z,28.40
2018-08-18T16:17:23.050Z,28.60
2018-08-18T16:19:50.203Z,28.40
2018-08-18T16:22:20.319Z,28.30
2018-08-18T16:24:47.409Z,28.10
2018-08-18T16:27:29.362Z,27.90
2018-08-18T16:30:00.765Z,27.80
2018-08-18T16:32:27.946Z,27.90
2018-08-18T16:34:55.847Z,27.90
2018-08-18T16:37:22.926Z,27.70
2018-08-18T16:39:50.525Z,27.50
2018-08-18T16:47:13.506Z,27.40
2018-08-18T16:54:49.159Z,27.30
2018-08-18T16:57:16.604Z,27.30
2018-08-18T16:59:45.069Z,27.10
2018-08-18T17:02:12.208Z,27.00
2018-08-18T17:04:39.250Z,26.80
2018-08-18T17:07:06.858Z,26.70
2018-08-18T17:09:33.975Z,26.70
2018-08-18T17:12:01.009Z,26.70
2018-08-18T17:14:28.019Z,26.60
2018-08-18T17:16:56.068Z,26.60
2018-08-18T17:19:23.108Z,26.60
2018-08-18T17:21:50.158Z,26.40
2018-08-18T17:24:17.206Z,26.40
2018-08-18T17:26:44.221Z,26.20
2018-08-18T17:29:11.245Z,26.20
2018-08-18T17:31:38.312Z,26.20
2018-08-18T17:34:05.346Z,26.10
2018-08-18T17:36:32.972Z,26.10
2018-08-18T17:41:38.588Z,26.00
2018-08-18T17:44:05.635Z,26.10
2018-08-18T17:46:32.641Z,25.90
2018-08-18T17:48:59.657Z,25.90
2018-08-18T17:51:26.808Z,25.80
2018-08-18T17:53:53.805Z,25.80
2018-08-18T17:56:21.763Z,25.80
2018-08-18T17:58:49.714Z,25.70
2018-08-18T18:01:16.667Z,25.60
2018-08-18T18:03:43.687Z,25.70
2018-08-18T18:06:10.736Z,25.50
2018-08-18T18:08:37.731Z,25.60
2018-08-18T18:11:04.723Z,25.60
2018-08-18T18:13:31.802Z,25.50
2018-08-18T18:15:59.778Z,25.60
2018-08-18T18:18:27.230Z,25.60
2018-08-18T18:20:54.331Z,25.70
2018-08-18T18:25:48.588Z,25.60
2018-08-18T18:28:15.608Z,25.60
2018-08-18T18:30:42.636Z,25.70
2018-08-18T18:33:10.478Z,25.70
2018-08-18T18:35:37.514Z,25.60
2018-08-18T18:38:04.560Z,25.60
2018-08-18T18:40:31.595Z,25.60
2018-08-18T18:43:01.873Z,25.60
2018-08-18T18:45:27.378Z,25.60
2018-08-18T18:47:54.429Z,25.60
2018-08-18T18:50:21.453Z,25.50
2018-08-18T18:52:53.987Z,25.50
2018-08-18T18:55:19.980Z,25.50
2018-08-18T19:00:27.436Z,25.60
2018-08-18T19:05:21.651Z,25.50
2018-08-18T19:07:48.624Z,25.40
2018-08-18T19:10:15.683Z,25.30
2018-08-18T19:12:42.711Z,25.50
2018-08-18T19:15:10.615Z,25.70
2018-08-18T19:17:37.726Z,25.60
2018-08-18T19:22:46.986Z,25.70
2018-08-18T19:25:13.991Z,25.80
2018-08-18T19:27:41.031Z,25.80
2018-08-18T19:30:08.099Z,25.80
2018-08-18T19:32:35.138Z,25.60
2018-08-18T19:37:31.095Z,25.50
2018-08-18T19:39:58.111Z,25.50
2018-08-18T19:42:25.136Z,25.50
2018-08-18T19:44:52.210Z,25.60
2018-08-18T19:47:19.337Z,25.60
2018-08-18T19:49:46.265Z,25.60
2018-08-18T19:52:13.375Z,25.60
2018-08-18T19:54:41.354Z,25.70
2018-08-18T19:57:08.367Z,25.60
2018-08-18T19:59:36.322Z,25.70
2018-08-18T20:02:03.390Z,25.60
2018-08-18T20:09:35.788Z,25.60
2018-08-18T20:12:02.805Z,25.60
2018-08-18T20:14:29.794Z,25.60
2018-08-18T20:16:56.787Z,25.40
2018-08-18T20:19:23.836Z,25.50
2018-08-18T20:24:17.952Z,25.50
2018-08-18T20:26:46.066Z,25.30
2018-08-18T20:29:13.092Z,25.30
2018-08-18T20:31:40.096Z,25.20
2018-08-18T20:34:07.168Z,25.20
2018-08-18T20:39:16.770Z,25.10
2018-08-18T20:41:43.794Z,25.20
2018-08-18T20:44:10.831Z,25.20
2018-08-18T20:46:37.903Z,25.10
2018-08-18T20:49:04.918Z,25.10
2018-08-18T20:51:32.679Z,24.90
2018-08-18T20:53:59.810Z,24.80
2018-08-18T20:56:27.812Z,24.80
2018-08-18T20:58:55.254Z,24.80
2018-08-18T21:01:22.325Z,24.70
2018-08-18T21:03:49.322Z,24.80
2018-08-18T21:06:16.340Z,24.70
2018-08-18T21:08:43.403Z,24.70
2018-08-18T21:11:11.249Z,24.60
2018-08-18T21:13:39.266Z,24.70
2018-08-18T21:18:33.395Z,24.70
2018-08-18T21:21:00.422Z,24.70
2018-08-18T21:23:27.464Z,24.60
2018-08-18T21:25:54.484Z,24.60
2018-08-18T21:28:22.214Z,24.70
2018-08-18T21:30:50.224Z,24.60
2018-08-18T21:35:58.384Z,24.50
2018-08-18T21:38:25.405Z,24.60
2018-08-18T21:40:53.235Z,24.30
2018-08-18T21:43:20.354Z,23.90
2018-08-18T21:48:16.286Z,23.60
2018-08-18T21:50:44.281Z,23.60
2018-08-18T21:53:11.274Z,23.50
2018-08-18T21:55:38.289Z,23.50
2018-08-18T21:58:05.331Z,23.50
2018-08-18T22:00:32.360Z,23.40
2018-08-18T22:02:59.372Z,23.40
2018-08-18T22:05:26.932Z,23.30
2018-08-18T22:10:20.988Z,23.30
2018-08-18T22:12:48.067Z,23.40
2018-08-18T22:15:15.075Z,23.30
2018-08-18T22:17:42.093Z,23.20
2018-08-18T22:20:09.161Z,23.40
2018-08-18T22:22:36.196Z,23.50
2018-08-18T22:25:03.205Z,23.40
2018-08-18T22:27:30.249Z,23.30
2018-08-18T22:32:24.412Z,23.60
2018-08-18T22:34:53.287Z,23.50
2018-08-18T22:39:58.808Z,23.20
2018-08-18T22:42:25.811Z,23.30
2018-08-18T22:44:54.343Z,23.30
2018-08-18T22:47:21.871Z,23.20
2018-08-18T22:54:55.053Z,23.20
2018-08-18T22:57:22.944Z,23.30
2018-08-18T22:59:49.948Z,23.30
2018-08-18T23:02:16.984Z,23.30
2018-08-18T23:04:44.009Z,23.30
2018-08-18T23:07:11.042Z,23.10
2018-08-18T23:12:05.216Z,22.70
2018-08-18T23:14:32.302Z,22.70
2018-08-18T23:16:59.336Z,22.60
2018-08-18T23:21:54.403Z,22.70
2018-08-18T23:24:22.324Z,22.80
2018-08-18T23:26:49.342Z,22.80
2018-08-18T23:29:17.201Z,22.80
2018-08-18T23:31:45.086Z,22.80
2018-08-18T23:34:12.131Z,22.80
2018-08-18T23:36:39.101Z,22.50
2018-08-18T23:39:06.151Z,22.40
2018-08-18T23:41:34.108Z,22.20
2018-08-18T23:44:01.134Z,22.20
2018-08-18T23:46:29.004Z,22.30
2018-08-18T23:48:56.036Z,22.40
2018-08-18T23:51:23.908Z,22.40
2018-08-18T23:53:50.955Z,22.40
2018-08-18T23:56:18.829Z,22.40
